createdAt,value
2022-10-15T00:01:10.932Z,14.90
2022-10-15T00:03:38.859Z,15.00
2022-10-15T00:09:02.203Z,14.90
2022-10-15T00:11:29.507Z,14.90
2022-10-15T00:13:58.363Z,15.00
2022-10-15T00:16:27.148Z,15.00
2022-10-15T00:18:57.391Z,15.00
2022-10-15T00:21:23.991Z,15.00
2022-10-15T00:23:50.702Z,15.00
2022-10-15T00:26:21.749Z,15.10
2022-10-15T00:28:50.769Z,15.10
2022-10-15T00:31:21.206Z,15.10
2022-10-15T00:33:49.661Z,15.10
2022-10-15T00:36:18.787Z,15.10
2022-10-15T00:38:45.628Z,15.10
2022-10-15T00:41:18.247Z,15.10
2022-10-15T00:43:47.880Z,15.10
2022-10-15T00:46:26.575Z,15.00
2022-10-15T00:49:00.698Z,15.00
2022-10-15T00:51:33.053Z,15.00
2022-10-15T00:54:00.699Z,15.10
2022-10-15T00:56:29.835Z,15.10
2022-10-15T00:58:57.266Z,15.10
2022-10-15T01:04:18.697Z,15.10
2022-10-15T01:06:46.212Z,15.00
2022-10-15T01:09:13.737Z,15.00
2022-10-15T01:11:52.033Z,14.90
2022-10-15T01:14:36.601Z,14.90
2022-10-15T01:17:20.366Z,14.80
2022-10-15T01:20:18.751Z,14.80
2022-10-15T01:23:28.278Z,14.80
2022-10-15T01:26:36.012Z,14.80
2022-10-15T01:29:14.348Z,14.80
2022-10-15T01:32:01.227Z,14.70
2022-10-15T01:34:31.337Z,14.60
2022-10-15T01:37:12.895Z,14.60
2022-10-15T01:39:44.729Z,14.70
2022-10-15T01:42:24.607Z,14.60
2022-10-15T01:44:56.254Z,14.50
2022-10-15T01:47:48.709Z,14.50
2022-10-15T01:50:19.077Z,14.50
2022-10-15T01:52:46.145Z,14.40
2022-10-15T01:55:15.230Z,14.40
2022-10-15T01:57:44.877Z,14.40
2022-10-15T02:00:12.214Z,14.40
2022-10-15T02:02:38.783Z,14.40
2022-10-15T02:05:09.085Z,14.30
2022-10-15T02:08:07.050Z,14.20
2022-10-15T02:10:52.152Z,14.30
2022-10-15T02:13:29.839Z,14.30
2022-10-15T02:16:18.115Z,14.30
2022-10-15T02:19:05.909Z,14.40
2022-10-15T02:21:43.449Z,14.30
2022-10-15T02:24:17.779Z,14.30
2022-10-15T02:26:45.195Z,14.30
2022-10-15T02:31:46.562Z,14.30
2022-10-15T02:34:20.745Z,14.20
2022-10-15T02:36:48.839Z,14.30
2022-10-15T02:39:21.160Z,14.30
2022-10-15T02:41:48.363Z,14.20
2022-10-15T02:44:14.927Z,14.10
2022-10-15T02:46:41.491Z,14.20
2022-10-15T02:49:10.396Z,14.20
2022-10-15T02:51:37.379Z,14.10
2022-10-15T02:54:05.925Z,14.10
2022-10-15T02:56:32.905Z,14.10
2022-10-15T02:58:59.444Z,14.00
2022-10-15T03:01:26.100Z,14.00
2022-10-15T03:03:52.715Z,14.00
2022-10-15T03:06:19.370Z,14.00
2022-10-15T03:08:45.909Z,14.00
2022-10-15T03:11:12.665Z,14.00
2022-10-15T03:13:40.900Z,14.00
2022-10-15T03:16:12.008Z,13.90
2022-10-15T03:18:40.689Z,13.90
2022-10-15T03:21:07.877Z,13.90
2022-10-15T03:23:34.619Z,13.80
2022-10-15T03:26:01.320Z,13.80
2022-10-15T03:28:27.906Z,13.70
2022-10-15T03:33:45.294Z,13.80
2022-10-15T03:36:11.846Z,13.80
2022-10-15T03:38:38.434Z,13.60
2022-10-15T03:41:05.159Z,13.60
2022-10-15T03:43:31.706Z,13.50
2022-10-15T03:46:02.465Z,13.50
2022-10-15T03:48:29.512Z,13.40
2022-10-15T03:50:56.525Z,13.40
2022-10-15T03:56:15.000Z,13.30
2022-10-15T03:58:41.620Z,13.40
2022-10-15T04:01:12.971Z,13.40
2022-10-15T04:03:40.107Z,13.40
2022-10-15T04:06:07.296Z,13.40
2022-10-15T04:08:34.119Z,13.50
2022-10-15T04:11:00.752Z,13.50
2022-10-15T04:13:28.500Z,13.70
2022-10-15T04:15:55.678Z,13.70
2022-10-15T04:18:22.674Z,13.70
2022-10-15T04:20:49.600Z,13.70
2022-10-15T04:23:17.238Z,13.70
2022-10-15T04:25:43.964Z,13.80
2022-10-15T04:28:10.511Z,13.80
2022-10-15T04:30:37.112Z,13.70
2022-10-15T04:33:03.719Z,13.70
2022-10-15T04:35:30.279Z,13.70
2022-10-15T04:37:59.437Z,13.70
2022-10-15T04:40:26.128Z,13.60
2022-10-15T04:42:52.689Z,13.60
2022-10-15T04:45:19.577Z,13.70
2022-10-15T04:47:46.128Z,13.70
2022-10-15T04:50:12.756Z,13.70
2022-10-15T04:52:39.708Z,13.70
2022-10-15T04:55:06.792Z,13.70
2022-10-15T05:00:24.195Z,13.50
2022-10-15T05:02:50.763Z,13.50
2022-10-15T05:05:17.312Z,13.40
2022-10-15T05:07:43.893Z,13.40
2022-10-15T05:10:10.457Z,13.40
2022-10-15T05:12:38.042Z,13.40
2022-10-15T05:15:04.914Z,13.40
2022-10-15T05:17:31.416Z,13.50
2022-10-15T05:19:57.949Z,13.50
2022-10-15T05:22:24.839Z,13.50
2022-10-15T05:24:51.635Z,13.50
2022-10-15T05:27:18.180Z,13.50
2022-10-15T05:29:45.257Z,13.50
2022-10-15T05:32:13.428Z,13.40
2022-10-15T05:34:39.985Z,13.40
2022-10-15T05:37:06.948Z,13.50
2022-10-15T05:39:33.475Z,13.50
2022-10-15T05:42:00.005Z,13.50
2022-10-15T05:44:26.617Z,13.40
2022-10-15T05:46:53.142Z,13.40
2022-10-15T05:49:19.811Z,13.40
2022-10-15T05:51:46.341Z,13.40
2022-10-15T05:54:12.985Z,13.40
2022-10-15T05:56:39.561Z,13.30
2022-10-15T05:59:06.106Z,13.30
2022-10-15T06:01:32.634Z,13.30
2022-10-15T06:03:59.140Z,13.30
2022-10-15T06:06:26.453Z,13.30
2022-10-15T06:08:54.209Z,13.30
2022-10-15T06:14:12.074Z,13.30
2022-10-15T06:16:38.660Z,13.40
2022-10-15T06:19:05.369Z,13.40
2022-10-15T06:21:31.980Z,13.40
2022-10-15T06:23:58.557Z,13.30
2022-10-15T06:26:25.065Z,13.30
2022-10-15T06:28:51.601Z,13.40
2022-10-15T06:31:18.313Z,13.40
2022-10-15T06:33:44.847Z,13.40
2022-10-15T06:36:13.896Z,13.30
2022-10-15T06:38:40.523Z,13.30
2022-10-15T06:41:08.101Z,13.40
2022-10-15T06:43:35.749Z,13.40
2022-10-15T06:46:04.072Z,13.50
2022-10-15T06:48:30.692Z,13.50
2022-10-15T06:50:59.680Z,13.50
2022-10-15T06:53:26.578Z,13.50
2022-10-15T06:55:57.978Z,13.50
2022-10-15T06:58:24.612Z,13.60
2022-10-15T07:00:51.190Z,13.60
2022-10-15T07:03:17.790Z,13.50
2022-10-15T07:05:44.332Z,13.50
2022-10-15T07:08:14.158Z,13.50
2022-10-15T07:10:43.249Z,13.60
2022-10-15T07:13:09.784Z,13.60
2022-10-15T07:15:36.361Z,13.60
2022-10-15T07:18:03.205Z,13.50
2022-10-15T07:20:33.545Z,13.50
2022-10-15T07:23:02.240Z,13.50
2022-10-15T07:25:29.136Z,13.50
2022-10-15T07:27:56.602Z,13.50
2022-10-15T07:30:27.286Z,13.50
2022-10-15T07:32:56.744Z,13.60
2022-10-15T07:35:23.629Z,13.60
2022-10-15T07:37:50.711Z,13.60
2022-10-15T07:40:19.045Z,13.60
2022-10-15T07:42:51.867Z,13.60
2022-10-15T07:45:18.437Z,13.70
2022-10-15T07:47:44.940Z,13.80
2022-10-15T07:50:11.460Z,13.80
2022-10-15T07:52:38.016Z,13.80
2022-10-15T07:55:06.037Z,13.90
2022-10-15T07:57:32.604Z,13.90
2022-10-15T07:59:59.373Z,13.80
2022-10-15T08:02:26.388Z,13.90
2022-10-15T08:04:53.486Z,14.00
2022-10-15T08:07:20.029Z,13.90
2022-10-15T08:12:18.194Z,14.00
2022-10-15T08:14:44.800Z,14.00
2022-10-15T08:17:11.681Z,14.00
2022-10-15T08:19:38.796Z,13.90
2022-10-15T08:22:05.556Z,14.00
2022-10-15T08:24:32.245Z,14.00
2022-10-15T08:26:58.832Z,14.00
2022-10-15T08:29:25.376Z,14.10
2022-10-15T08:31:51.927Z,14.10
2022-10-15T08:34:18.453Z,14.00
2022-10-15T08:36:45.015Z,14.10
2022-10-15T08:39:11.663Z,14.00
2022-10-15T08:41:49.829Z,14.10
2022-10-15T08:44:21.716Z,14.20
2022-10-15T08:46:53.937Z,14.20
2022-10-15T08:49:29.571Z,14.20
2022-10-15T08:52:14.676Z,14.20
2022-10-15T08:54:41.277Z,14.20
2022-10-15T08:57:35.942Z,14.20
2022-10-15T09:00:11.161Z,14.20
2022-10-15T09:02:47.917Z,14.20
2022-10-15T09:05:25.923Z,14.10
2022-10-15T09:08:03.808Z,14.30
2022-10-15T09:10:59.571Z,14.40
2022-10-15T09:13:30.415Z,14.60
2022-10-15T09:16:17.887Z,14.60
2022-10-15T09:18:47.912Z,14.50
2022-10-15T09:21:15.372Z,14.40
2022-10-15T09:23:45.180Z,14.60
2022-10-15T09:26:25.245Z,14.60
2022-10-15T09:29:03.811Z,14.80
2022-10-15T09:31:41.425Z,14.90
2022-10-15T09:34:35.392Z,15.10
2022-10-15T09:37:11.280Z,15.30
2022-10-15T09:40:13.407Z,15.30
2022-10-15T09:42:42.461Z,15.30
2022-10-15T09:45:15.659Z,15.40
2022-10-15T09:47:43.641Z,15.50
2022-10-15T09:50:13.028Z,15.60
2022-10-15T09:53:05.531Z,15.70
2022-10-15T09:58:53.772Z,15.60
2022-10-15T10:01:22.901Z,15.70
2022-10-15T10:04:11.532Z,15.80
2022-10-15T10:06:53.874Z,15.90
2022-10-15T10:09:45.197Z,16.00
2022-10-15T10:12:22.111Z,16.10
2022-10-15T10:14:57.949Z,16.10
2022-10-15T10:17:29.094Z,16.20
2022-10-15T10:20:18.591Z,16.20
2022-10-15T10:22:52.607Z,16.20
2022-10-15T10:25:43.553Z,16.20
2022-10-15T10:28:11.520Z,16.20
2022-10-15T10:30:51.503Z,16.20
2022-10-15T10:33:28.738Z,16.20
2022-10-15T10:35:56.840Z,16.30
2022-10-15T10:38:36.121Z,16.40
2022-10-15T10:41:09.927Z,16.40
2022-10-15T10:43:39.428Z,16.40
2022-10-15T10:46:18.520Z,16.70
2022-10-15T10:48:53.184Z,16.80
2022-10-15T10:51:22.940Z,16.90
2022-10-15T10:53:55.688Z,16.90
2022-10-15T10:56:43.803Z,17.00
2022-10-15T10:59:19.326Z,16.90
2022-10-15T11:01:47.021Z,17.00
2022-10-15T11:04:25.698Z,17.10
2022-10-15T11:07:13.024Z,17.20
2022-10-15T11:09:56.068Z,17.30
2022-10-15T11:12:41.372Z,17.20
2022-10-15T11:15:29.456Z,17.30
2022-10-15T11:18:07.059Z,17.30
2022-10-15T11:20:56.409Z,17.40
2022-10-15T11:23:58.876Z,17.40
2022-10-15T11:26:52.488Z,17.50
2022-10-15T11:29:31.481Z,17.50
2022-10-15T11:32:14.763Z,17.60
2022-10-15T11:35:40.825Z,17.50
2022-10-15T11:38:31.567Z,17.50
2022-10-15T11:41:35.699Z,17.60
2022-10-15T11:44:21.195Z,17.70
2022-10-15T11:47:16.760Z,17.80
2022-10-15T11:49:49.163Z,18.00
2022-10-15T11:52:53.344Z,18.10
2022-10-15T11:55:31.624Z,18.00
2022-10-15T11:58:01.177Z,18.10
2022-10-15T12:00:41.450Z,18.00
2022-10-15T12:03:25.842Z,17.80
2022-10-15T12:05:58.095Z,17.80
2022-10-15T12:08:30.065Z,17.90
2022-10-15T12:11:18.324Z,18.00
2022-10-15T12:14:14.451Z,18.20
2022-10-15T12:16:56.150Z,18.10
2022-10-15T12:19:32.520Z,18.10
2022-10-15T12:21:59.003Z,18.20
2022-10-15T12:24:47.639Z,18.20
2022-10-15T12:27:20.081Z,18.30
2022-10-15T12:29:48.333Z,18.50
2022-10-15T12:32:26.793Z,18.80
2022-10-15T12:34:57.829Z,19.00
2022-10-15T12:37:31.787Z,18.90
2022-10-15T12:40:22.657Z,18.80
2022-10-15T12:42:59.461Z,18.80
2022-10-15T12:45:41.369Z,19.00
2022-10-15T12:48:21.845Z,19.00
2022-10-15T12:50:48.529Z,19.00
2022-10-15T12:53:34.912Z,19.10
2022-10-15T12:56:19.204Z,19.30
2022-10-15T12:58:53.537Z,19.30
2022-10-15T13:01:20.497Z,19.10
2022-10-15T13:03:52.943Z,19.30
2022-10-15T13:06:22.902Z,19.40
2022-10-15T13:09:12.061Z,19.30
2022-10-15T13:11:48.105Z,19.20
2022-10-15T13:14:20.363Z,19.10
2022-10-15T13:16:48.658Z,19.10
2022-10-15T13:22:33.139Z,19.10
2022-10-15T13:25:00.260Z,18.90
2022-10-15T13:27:37.330Z,18.80
2022-10-15T13:30:15.096Z,18.80
2022-10-15T13:32:55.780Z,18.90
2022-10-15T13:35:28.056Z,19.10
2022-10-15T13:37:56.667Z,19.00
2022-10-15T13:40:29.166Z,18.90
2022-10-15T13:43:06.631Z,18.80
2022-10-15T13:45:34.359Z,18.90
2022-10-15T13:48:00.936Z,19.00
2022-10-15T13:50:34.775Z,19.00
2022-10-15T13:53:31.884Z,19.00
2022-10-15T13:56:01.226Z,18.90
2022-10-15T13:58:30.410Z,19.00
2022-10-15T14:01:15.644Z,19.00
2022-10-15T14:03:49.799Z,19.00
2022-10-15T14:06:31.245Z,19.10
2022-10-15T14:09:12.177Z,19.00
2022-10-15T14:11:39.857Z,18.80
2022-10-15T14:14:33.567Z,18.80
2022-10-15T14:17:04.133Z,18.90
2022-10-15T14:19:32.473Z,18.90
2022-10-15T14:22:00.675Z,19.00
2022-10-15T14:24:32.961Z,19.00
2022-10-15T14:27:25.017Z,19.00
2022-10-15T14:29:58.906Z,18.80
2022-10-15T14:32:46.516Z,18.80
2022-10-15T14:35:30.909Z,18.80
2022-10-15T14:38:15.202Z,18.70
2022-10-15T14:40:55.970Z,18.70
2022-10-15T14:43:32.068Z,18.70
2022-10-15T14:46:01.568Z,18.60
2022-10-15T14:48:38.683Z,18.60
2022-10-15T14:51:12.704Z,18.70
2022-10-15T14:53:45.213Z,18.70
2022-10-15T14:56:22.544Z,18.70
2022-10-15T14:58:56.539Z,18.80
2022-10-15T15:01:23.961Z,18.80
2022-10-15T15:03:55.784Z,18.80
2022-10-15T15:06:22.774Z,18.90
2022-10-15T15:08:49.332Z,18.80
2022-10-15T15:11:22.349Z,18.60
2022-10-15T15:13:49.812Z,18.60
2022-10-15T15:16:17.482Z,18.70
2022-10-15T15:18:46.179Z,18.70
2022-10-15T15:21:22.059Z,18.70
2022-10-15T15:23:48.925Z,18.70
2022-10-15T15:26:15.684Z,18.60
2022-10-15T15:28:42.410Z,18.70
2022-10-15T15:31:16.135Z,18.60
2022-10-15T15:33:42.841Z,18.60
2022-10-15T15:36:17.661Z,18.50
2022-10-15T15:38:49.774Z,18.40
2022-10-15T15:41:17.394Z,18.40
2022-10-15T15:43:44.347Z,18.40
2022-10-15T15:46:11.069Z,18.40
2022-10-15T15:48:38.441Z,18.30
2022-10-15T15:51:17.042Z,18.30
2022-10-15T15:53:43.576Z,18.30
2022-10-15T15:56:10.106Z,18.30
2022-10-15T15:58:36.691Z,18.30
2022-10-15T16:01:03.592Z,18.20
2022-10-15T16:03:30.140Z,18.10
2022-10-15T16:05:56.925Z,18.10
2022-10-15T16:08:23.531Z,18.00
2022-10-15T16:10:50.090Z,17.90
2022-10-15T16:13:16.839Z,17.80
2022-10-15T16:15:43.383Z,17.70
2022-10-15T16:18:10.632Z,17.70
2022-10-15T16:20:39.656Z,17.70
2022-10-15T16:23:06.199Z,17.70
2022-10-15T16:25:32.803Z,17.70
2022-10-15T16:28:01.928Z,17.70
2022-10-15T16:30:28.776Z,17.50
2022-10-15T16:32:55.581Z,17.50
2022-10-15T16:38:13.944Z,17.50
2022-10-15T16:40:40.479Z,17.50
2022-10-15T16:43:07.353Z,17.40
2022-10-15T16:45:34.004Z,17.40
2022-10-15T16:48:00.547Z,17.30
2022-10-15T16:50:52.980Z,17.30
2022-10-15T16:53:19.491Z,17.30
2022-10-15T16:55:46.018Z,17.20
2022-10-15T16:58:12.523Z,17.10
2022-10-15T17:03:12.203Z,16.90
2022-10-15T17:05:38.708Z,16.80
2022-10-15T17:08:05.883Z,16.90
2022-10-15T17:10:32.422Z,16.80
2022-10-15T17:12:59.115Z,16.90
2022-10-15T17:15:25.776Z,16.80
2022-10-15T17:17:52.297Z,16.90
2022-10-15T17:20:18.873Z,16.70
2022-10-15T17:22:45.384Z,16.70
2022-10-15T17:25:11.920Z,16.60
2022-10-15T17:27:38.496Z,16.80
2022-10-15T17:30:05.732Z,16.70
2022-10-15T17:32:32.519Z,16.70
2022-10-15T17:35:03.459Z,16.70
2022-10-15T17:37:30.835Z,16.70
2022-10-15T17:39:58.156Z,16.60
2022-10-15T17:42:25.212Z,16.60
2022-10-15T17:44:52.049Z,16.60
2022-10-15T17:47:18.576Z,16.50
2022-10-15T17:49:45.256Z,16.40
2022-10-15T17:52:12.707Z,16.40
2022-10-15T17:54:39.385Z,16.30
2022-10-15T17:57:06.301Z,16.30
2022-10-15T17:59:32.829Z,16.30
2022-10-15T18:02:00.794Z,16.30
2022-10-15T18:04:30.857Z,16.40
2022-10-15T18:06:57.651Z,16.30
2022-10-15T18:09:26.095Z,16.20
2022-10-15T18:11:52.727Z,16.30
2022-10-15T18:16:50.729Z,16.40
2022-10-15T18:19:17.292Z,16.30
2022-10-15T18:21:48.556Z,16.30
2022-10-15T18:24:19.066Z,16.30
2022-10-15T18:26:45.609Z,16.30
2022-10-15T18:29:12.140Z,16.30
2022-10-15T18:31:38.755Z,16.30
2022-10-15T18:34:05.336Z,16.30
2022-10-15T18:36:31.952Z,16.40
2022-10-15T18:38:59.279Z,16.40
2022-10-15T18:41:28.828Z,16.40
2022-10-15T18:44:00.330Z,16.50
2022-10-15T18:46:28.178Z,16.40
2022-10-15T18:48:54.833Z,16.40
2022-10-15T18:51:21.913Z,16.60
2022-10-15T18:53:48.649Z,16.50
2022-10-15T18:56:15.229Z,16.50
2022-10-15T18:58:45.424Z,16.50
2022-10-15T19:01:33.570Z,16.50
2022-10-15T19:04:05.662Z,16.50
2022-10-15T19:06:35.857Z,16.50
2022-10-15T19:09:04.748Z,16.60
2022-10-15T19:11:32.266Z,16.50
2022-10-15T19:14:00.585Z,16.60
2022-10-15T19:19:21.308Z,16.60
2022-10-15T19:21:49.854Z,16.60
2022-10-15T19:24:18.349Z,16.60
2022-10-15T19:26:45.136Z,16.60
2022-10-15T19:29:13.258Z,16.60
2022-10-15T19:31:42.375Z,16.60
2022-10-15T19:34:09.523Z,16.50
2022-10-15T19:36:39.431Z,16.50
2022-10-15T19:39:09.573Z,16.50
2022-10-15T19:41:40.665Z,16.50
2022-10-15T19:44:08.307Z,16.50
2022-10-15T19:46:36.416Z,16.40
2022-10-15T19:49:03.276Z,16.40
2022-10-15T19:51:31.040Z,16.30
2022-10-15T19:53:59.930Z,16.30
2022-10-15T19:56:27.331Z,16.20
2022-10-15T19:58:58.682Z,16.30
2022-10-15T20:01:26.327Z,16.30
2022-10-15T20:03:53.085Z,16.30
2022-10-15T20:06:20.903Z,16.30
2022-10-15T20:08:48.004Z,16.40
2022-10-15T20:11:14.847Z,16.30
2022-10-15T20:13:41.399Z,16.30
2022-10-15T20:16:11.332Z,16.30
2022-10-15T20:18:37.889Z,16.40
2022-10-15T20:21:09.712Z,16.20
2022-10-15T20:23:41.077Z,16.30
2022-10-15T20:26:09.828Z,16.20
2022-10-15T20:28:38.248Z,16.20
2022-10-15T20:31:06.873Z,16.20
2022-10-15T20:33:33.459Z,16.20
2022-10-15T20:36:21.204Z,16.10
2022-10-15T20:38:50.183Z,16.10
2022-10-15T20:41:17.670Z,16.10
2022-10-15T20:43:45.723Z,16.10
2022-10-15T20:46:16.562Z,16.20
2022-10-15T20:48:44.755Z,16.10
2022-10-15T20:51:13.473Z,16.00
2022-10-15T20:53:40.868Z,16.00
2022-10-15T20:56:07.760Z,16.00
2022-10-15T20:58:34.411Z,16.00
2022-10-15T21:01:04.352Z,15.90
2022-10-15T21:03:31.120Z,15.90
2022-10-15T21:05:57.712Z,15.80
2022-10-15T21:08:24.532Z,15.80
2022-10-15T21:10:51.077Z,15.70
2022-10-15T21:13:17.619Z,15.70
2022-10-15T21:15:44.184Z,15.70
2022-10-15T21:18:10.796Z,15.60
2022-10-15T21:20:37.334Z,15.50
2022-10-15T21:23:03.889Z,15.40
2022-10-15T21:25:30.758Z,15.30
2022-10-15T21:27:57.308Z,15.40
2022-10-15T21:30:23.990Z,15.30
2022-10-15T21:32:50.638Z,15.30
2022-10-15T21:35:17.203Z,15.30
2022-10-15T21:37:43.919Z,15.30
2022-10-15T21:40:11.893Z,15.30
2022-10-15T21:42:38.468Z,15.30
2022-10-15T21:45:05.421Z,15.20
2022-10-15T21:47:32.475Z,15.20
2022-10-15T21:49:59.078Z,15.20
2022-10-15T21:52:25.624Z,15.20
2022-10-15T21:54:52.199Z,15.10
2022-10-15T21:57:18.722Z,15.10
2022-10-15T21:59:45.276Z,15.10
2022-10-15T22:02:11.902Z,15.10
2022-10-15T22:04:38.611Z,15.10
2022-10-15T22:07:08.751Z,15.10
2022-10-15T22:09:35.996Z,15.20
2022-10-15T22:12:02.520Z,15.10
2022-10-15T22:14:29.036Z,15.20
2022-10-15T22:16:55.551Z,15.20
2022-10-15T22:25:05.281Z,15.30
2022-10-15T22:27:32.278Z,15.30
2022-10-15T22:29:58.798Z,15.30
2022-10-15T22:32:25.559Z,15.30
2022-10-15T22:34:52.254Z,15.40
2022-10-15T22:37:18.807Z,15.40
2022-10-15T22:39:45.479Z,15.40
2022-10-15T22:42:12.073Z,15.30
2022-10-15T22:44:38.639Z,15.20
2022-10-15T22:47:05.339Z,15.20
2022-10-15T22:49:31.893Z,15.30
2022-10-15T22:51:58.415Z,15.20
2022-10-15T22:54:25.082Z,15.30
2022-10-15T22:56:52.050Z,15.30
2022-10-15T22:59:19.406Z,15.30
2022-10-15T23:01:46.140Z,15.20
2022-10-15T23:04:14.391Z,15.20
2022-10-15T23:06:41.048Z,15.20
2022-10-15T23:09:08.356Z,15.20
2022-10-15T23:11:40.149Z,15.20
2022-10-15T23:14:09.753Z,15.10
2022-10-15T23:16:40.481Z,15.10
2022-10-15T23:19:12.120Z,15.00
2022-10-15T23:21:45.836Z,15.10
2022-10-15T23:24:13.317Z,15.10
2022-10-15T23:26:41.157Z,15.10
2022-10-15T23:29:11.838Z,15.10
2022-10-15T23:31:38.396Z,15.00
2022-10-15T23:34:05.564Z,15.00
2022-10-15T23:36:32.957Z,15.00
2022-10-15T23:39:04.649Z,14.90
2022-10-15T23:41:32.055Z,14.90
2022-10-15T23:43:59.356Z,14.90
2022-10-15T23:46:26.079Z,14.90
2022-10-15T23:48:52.785Z,15.00
2022-10-15T23:51:25.050Z,14.90
2022-10-15T23:53:52.940Z,14.90
2022-10-15T23:56:20.043Z,14.90
2022-10-15T23:58:51.255Z,14.90
